createdAt,value
2019-03-20T00:00:30.465Z,41.90
2019-03-20T00:02:59.456Z,41.87
2019-03-20T00:05:28.329Z,37.57
2019-03-20T00:07:57.236Z,39.77
2019-03-20T00:10:27.028Z,37.67
2019-03-20T00:12:55.941Z,39.93
2019-03-20T00:15:24.830Z,40.60
2019-03-20T00:17:53.927Z,44.17
2019-03-20T00:20:22.815Z,43.63
2019-03-20T00:22:51.689Z,44.80
2019-03-20T00:25:20.700Z,46.13
2019-03-20T00:27:50.514Z,46.53
2019-03-20T00:30:20.509Z,44.93
2019-03-20T00:32:49.554Z,44.03
2019-03-20T00:35:18.516Z,42.03
2019-03-20T00:37:47.614Z,39.97
2019-03-20T00:40:17.520Z,40.87
2019-03-20T00:42:46.411Z,36.23
2019-03-20T00:45:20.012Z,36.73
2019-03-20T00:47:49.106Z,38.43
2019-03-20T00:50:19.037Z,35.53
2019-03-20T00:52:47.885Z,33.13
2019-03-20T00:55:17.481Z,40.60
2019-03-20T00:57:46.408Z,40.63
2019-03-20T01:00:19.850Z,38.73
2019-03-20T01:02:48.799Z,40.07
2019-03-20T01:05:17.775Z,37.90
2019-03-20T01:07:47.094Z,41.57
2019-03-20T01:10:20.281Z,39.60
2019-03-20T01:12:49.149Z,40.33
2019-03-20T01:15:18.170Z,39.30
2019-03-20T01:17:47.474Z,37.63
2019-03-20T01:20:21.051Z,33.70
2019-03-20T01:22:49.925Z,34.70
2019-03-20T01:25:19.349Z,34.30
2019-03-20T01:27:48.407Z,35.47
2019-03-20T01:30:32.882Z,29.80
2019-03-20T01:33:06.898Z,35.73
2019-03-20T01:35:36.093Z,34.30
2019-03-20T01:38:05.601Z,31.83
2019-03-20T01:40:34.586Z,34.33
2019-03-20T01:43:03.705Z,30.20
2019-03-20T01:45:32.700Z,30.43
2019-03-20T01:48:01.590Z,31.93
2019-03-20T01:50:30.479Z,32.53
2019-03-20T01:52:59.473Z,30.57
2019-03-20T01:55:28.365Z,29.33
2019-03-20T01:57:57.252Z,36.60
2019-03-20T02:03:08.810Z,30.10
2019-03-20T02:05:37.675Z,27.50
2019-03-20T02:08:06.498Z,28.90
2019-03-20T02:10:35.424Z,28.60
2019-03-20T02:13:04.275Z,28.93
2019-03-20T02:15:38.999Z,31.23
2019-03-20T02:18:03.640Z,28.20
2019-03-20T02:20:32.484Z,27.43
2019-03-20T02:23:01.317Z,28.80
2019-03-20T02:25:32.305Z,29.77
2019-03-20T02:28:00.708Z,29.83
2019-03-20T02:30:29.552Z,24.00
2019-03-20T02:32:58.468Z,26.33
2019-03-20T02:35:27.301Z,27.80
2019-03-20T02:37:56.129Z,24.23
2019-03-20T02:40:25.008Z,33.13
2019-03-20T02:42:53.841Z,30.07
2019-03-20T02:45:22.677Z,32.13
2019-03-20T02:47:51.576Z,30.47
2019-03-20T02:50:20.406Z,32.33
2019-03-20T02:52:49.268Z,27.17
2019-03-20T02:55:18.162Z,29.07
2019-03-20T02:57:47.021Z,36.57
2019-03-20T03:00:20.742Z,31.37
2019-03-20T03:02:49.739Z,32.70
2019-03-20T03:05:18.584Z,35.83
2019-03-20T03:07:47.414Z,35.37
2019-03-20T03:10:19.814Z,37.33
2019-03-20T03:12:48.676Z,37.17
2019-03-20T03:15:17.609Z,34.03
2019-03-20T03:17:46.515Z,35.83
2019-03-20T03:20:16.046Z,34.63
2019-03-20T03:22:45.200Z,33.30
2019-03-20T03:25:14.878Z,34.13
2019-03-20T03:27:43.734Z,33.80
2019-03-20T03:30:16.438Z,31.83
2019-03-20T03:32:45.610Z,37.93
2019-03-20T03:35:18.080Z,35.23
2019-03-20T03:37:45.023Z,33.73
2019-03-20T03:40:18.072Z,33.37
2019-03-20T03:42:47.239Z,35.70
2019-03-20T03:45:16.983Z,33.83
2019-03-20T03:47:46.280Z,30.83
2019-03-20T03:50:15.264Z,21.87
2019-03-20T03:52:44.165Z,24.73
2019-03-20T03:55:15.160Z,25.13
2019-03-20T03:57:44.533Z,20.07
2019-03-20T04:00:17.616Z,22.07
2019-03-20T04:02:46.498Z,23.37
2019-03-20T04:05:15.330Z,24.77
2019-03-20T04:07:44.224Z,25.13
2019-03-20T04:10:15.224Z,28.23
2019-03-20T04:12:44.060Z,25.50
2019-03-20T04:15:14.129Z,27.27
2019-03-20T04:17:43.115Z,23.77
2019-03-20T04:20:19.142Z,25.20
2019-03-20T04:22:48.021Z,26.27
2019-03-20T04:25:17.267Z,28.43
2019-03-20T04:27:46.110Z,28.63
2019-03-20T04:30:16.110Z,28.50
2019-03-20T04:32:44.950Z,28.63
2019-03-20T04:35:13.900Z,25.87
2019-03-20T04:37:42.778Z,28.80
2019-03-20T04:40:19.054Z,30.63
2019-03-20T04:42:47.966Z,31.53
2019-03-20T04:45:17.407Z,32.73
2019-03-20T04:47:46.242Z,37.07
2019-03-20T04:50:17.011Z,38.93
2019-03-20T04:52:45.853Z,38.53
2019-03-20T04:55:14.807Z,39.20
2019-03-20T04:57:45.529Z,39.33
2019-03-20T05:00:16.296Z,47.77
2019-03-20T05:02:45.122Z,53.43
2019-03-20T05:05:14.034Z,56.07
2019-03-20T05:07:42.900Z,60.50
2019-03-20T05:10:18.963Z,56.60
2019-03-20T05:12:47.794Z,59.13
2019-03-20T05:15:16.640Z,61.23
2019-03-20T05:17:45.547Z,58.13
2019-03-20T05:20:16.005Z,74.53
2019-03-20T05:22:44.857Z,85.57
2019-03-20T05:25:13.789Z,86.77
2019-03-20T05:27:42.634Z,88.97
2019-03-20T05:30:15.565Z,92.07
2019-03-20T05:32:44.549Z,97.07
2019-03-20T05:35:13.499Z,100.60
2019-03-20T05:37:42.354Z,98.87
2019-03-20T05:40:15.444Z,88.90
2019-03-20T05:42:44.275Z,95.37
2019-03-20T05:45:14.524Z,87.97
2019-03-20T05:47:43.512Z,85.83
2019-03-20T05:50:17.288Z,83.70
2019-03-20T05:52:46.123Z,83.13
2019-03-20T05:55:15.250Z,70.97
2019-03-20T05:57:44.192Z,70.67
2019-03-20T06:00:22.349Z,80.23
2019-03-20T06:02:51.176Z,78.53
2019-03-20T06:05:20.034Z,73.17
2019-03-20T06:07:48.935Z,73.73
2019-03-20T06:10:18.577Z,80.00
2019-03-20T06:12:47.424Z,118.97
2019-03-20T06:15:16.335Z,87.83
2019-03-20T06:17:46.905Z,79.40
2019-03-20T06:20:16.483Z,85.97
2019-03-20T06:22:45.553Z,92.40
2019-03-20T06:25:15.648Z,87.00
2019-03-20T06:27:44.493Z,91.50
2019-03-20T06:30:15.616Z,81.07
2019-03-20T06:32:44.468Z,68.23
2019-03-20T06:35:13.409Z,71.30
2019-03-20T06:37:42.327Z,78.30
2019-03-20T06:40:15.583Z,56.77
2019-03-20T06:42:44.848Z,55.53
2019-03-20T06:45:22.309Z,48.37
2019-03-20T06:47:51.204Z,51.03
2019-03-20T06:50:21.554Z,48.17
2019-03-20T06:52:50.485Z,38.37
2019-03-20T06:55:19.337Z,39.27
2019-03-20T06:57:48.180Z,50.90
2019-03-20T07:00:22.820Z,51.97
2019-03-20T07:02:51.646Z,53.97
2019-03-20T07:05:42.902Z,54.47
2019-03-20T07:08:11.536Z,52.73
2019-03-20T07:10:46.412Z,56.30
2019-03-20T07:13:15.254Z,65.70
2019-03-20T07:15:44.118Z,68.83
2019-03-20T07:18:13.005Z,72.93
2019-03-20T07:20:41.870Z,72.00
2019-03-20T07:23:10.709Z,76.40
2019-03-20T07:25:39.584Z,69.87
2019-03-20T07:28:08.457Z,77.43
2019-03-20T07:30:37.292Z,76.53
2019-03-20T07:33:06.532Z,76.40
2019-03-20T07:35:35.371Z,84.43
2019-03-20T07:38:04.224Z,80.00
2019-03-20T07:40:33.134Z,80.50
2019-03-20T07:43:08.773Z,78.73
2019-03-20T07:45:32.482Z,74.90
2019-03-20T07:48:01.374Z,72.77
2019-03-20T07:50:30.231Z,60.03
2019-03-20T07:52:59.092Z,71.63
2019-03-20T07:55:28.007Z,67.60
2019-03-20T07:57:56.846Z,66.93
2019-03-20T08:00:25.718Z,66.67
2019-03-20T08:02:54.617Z,64.57
2019-03-20T08:05:29.300Z,66.63
2019-03-20T08:07:53.947Z,69.03
2019-03-20T08:10:22.825Z,66.33
2019-03-20T08:12:51.660Z,66.73
2019-03-20T08:15:20.500Z,76.70
2019-03-20T08:17:49.421Z,65.93
2019-03-20T08:20:21.067Z,66.03
2019-03-20T08:22:49.931Z,67.37
2019-03-20T08:25:18.822Z,69.37
2019-03-20T08:27:47.664Z,65.83
2019-03-20T08:30:20.699Z,63.50
2019-03-20T08:32:49.562Z,56.33
2019-03-20T08:35:18.402Z,51.67
2019-03-20T08:37:47.269Z,52.83
2019-03-20T08:40:17.453Z,54.37
2019-03-20T08:42:46.389Z,53.00
2019-03-20T08:45:19.051Z,46.30
2019-03-20T08:47:47.938Z,50.17
2019-03-20T08:50:24.520Z,50.27
2019-03-20T08:52:53.473Z,57.90
2019-03-20T08:55:22.715Z,67.50
2019-03-20T08:57:51.766Z,65.47
2019-03-20T09:00:21.756Z,62.27
2019-03-20T09:02:50.756Z,67.30
2019-03-20T09:05:19.570Z,67.67
2019-03-20T09:07:48.446Z,66.30
2019-03-20T09:10:23.302Z,70.30
2019-03-20T09:12:52.246Z,67.70
2019-03-20T09:15:21.782Z,73.83
2019-03-20T09:17:50.726Z,85.00
2019-03-20T09:20:20.617Z,79.57
2019-03-20T09:22:49.469Z,83.57
2019-03-20T09:25:28.323Z,82.67
2019-03-20T09:27:57.158Z,88.20
2019-03-20T09:30:26.960Z,76.07
2019-03-20T09:32:56.141Z,69.07
2019-03-20T09:35:24.969Z,71.07
2019-03-20T09:37:53.810Z,74.93
2019-03-20T09:40:24.847Z,76.03
2019-03-20T09:42:53.694Z,77.40
2019-03-20T09:45:23.327Z,68.87
2019-03-20T09:47:52.210Z,68.77
2019-03-20T09:50:26.192Z,79.30
2019-03-20T09:52:55.052Z,79.23
2019-03-20T09:55:23.964Z,75.93
2019-03-20T09:57:52.799Z,73.23
2019-03-20T10:00:23.399Z,63.70
2019-03-20T10:02:52.725Z,64.33
2019-03-20T10:05:21.773Z,67.93
2019-03-20T10:07:50.914Z,61.53
2019-03-20T10:10:22.082Z,57.63
2019-03-20T10:12:51.015Z,55.87
2019-03-20T10:15:22.126Z,63.57
2019-03-20T10:17:51.015Z,53.83
2019-03-20T10:20:20.874Z,57.37
2019-03-20T10:22:49.718Z,58.53
2019-03-20T10:25:18.991Z,54.87
2019-03-20T10:27:48.707Z,55.57
2019-03-20T10:30:25.380Z,59.10
2019-03-20T10:32:54.207Z,60.53
2019-03-20T10:35:23.015Z,70.47
2019-03-20T10:37:52.149Z,77.13
2019-03-20T10:40:25.020Z,72.97
2019-03-20T10:42:53.860Z,70.10
2019-03-20T10:45:22.839Z,78.87
2019-03-20T10:47:53.292Z,69.97
2019-03-20T10:50:27.471Z,68.10
2019-03-20T10:52:56.316Z,63.67
2019-03-20T10:55:25.364Z,56.83
2019-03-20T10:57:54.308Z,75.27
2019-03-20T11:00:24.157Z,86.63
2019-03-20T11:02:53.293Z,81.67
2019-03-20T11:05:22.519Z,69.97
2019-03-20T11:07:51.353Z,70.57
2019-03-20T11:10:27.738Z,75.00
2019-03-20T11:12:56.694Z,71.20
2019-03-20T11:15:26.229Z,67.63
2019-03-20T11:17:55.140Z,76.33
2019-03-20T11:20:24.792Z,69.33
2019-03-20T11:22:53.622Z,61.03
2019-03-20T11:25:23.499Z,63.70
2019-03-20T11:27:52.348Z,60.27
2019-03-20T11:30:24.541Z,58.10
2019-03-20T11:32:53.381Z,64.90
2019-03-20T11:35:22.525Z,60.53
2019-03-20T11:37:51.685Z,62.13
2019-03-20T11:40:25.592Z,70.63
2019-03-20T11:42:54.644Z,65.67
2019-03-20T11:45:23.844Z,71.50
2019-03-20T11:47:52.890Z,78.90
2019-03-20T11:50:36.565Z,66.60
2019-03-20T11:53:09.490Z,67.50
2019-03-20T11:55:38.765Z,70.90
2019-03-20T11:58:07.886Z,74.13
2019-03-20T12:00:36.932Z,82.53
2019-03-20T12:03:06.078Z,76.20
2019-03-20T12:05:35.848Z,92.20
2019-03-20T12:08:05.039Z,93.03
2019-03-20T12:10:34.395Z,95.10
2019-03-20T12:13:03.242Z,87.27
2019-03-20T12:15:32.264Z,82.43
2019-03-20T12:18:01.115Z,85.50
2019-03-20T12:20:29.946Z,79.80
2019-03-20T12:23:01.601Z,78.10
2019-03-20T12:25:34.918Z,80.50
2019-03-20T12:28:03.745Z,76.77
2019-03-20T12:30:38.543Z,68.13
2019-03-20T12:33:07.400Z,69.57
2019-03-20T12:35:38.312Z,66.50
2019-03-20T12:38:14.374Z,71.43
2019-03-20T12:40:38.883Z,73.83
2019-03-20T12:43:07.706Z,72.37
2019-03-20T12:45:40.387Z,67.87
2019-03-20T12:48:10.932Z,71.73
2019-03-20T12:50:42.830Z,66.80
2019-03-20T12:53:17.885Z,79.43
2019-03-20T12:55:46.926Z,72.87
2019-03-20T12:58:16.407Z,68.20
2019-03-20T13:03:14.689Z,73.73
2019-03-20T13:05:43.658Z,75.27
2019-03-20T13:08:14.468Z,65.93
2019-03-20T13:10:43.029Z,75.77
2019-03-20T13:13:11.941Z,77.87
2019-03-20T13:15:41.086Z,82.67
2019-03-20T13:18:09.960Z,68.37
2019-03-20T13:20:38.820Z,78.27
2019-03-20T13:23:10.562Z,86.13
2019-03-20T13:25:39.363Z,87.60
2019-03-20T13:28:08.191Z,84.00
2019-03-20T13:30:58.490Z,81.27
2019-03-20T13:33:27.327Z,70.33
2019-03-20T13:35:57.018Z,79.67
2019-03-20T13:38:25.912Z,82.77
2019-03-20T13:40:55.688Z,75.17
2019-03-20T13:43:24.571Z,87.80
2019-03-20T13:45:53.434Z,76.17
2019-03-20T13:48:22.278Z,83.40
2019-03-20T13:50:51.379Z,91.17
2019-03-20T13:53:20.221Z,97.27
2019-03-20T13:55:49.083Z,98.77
2019-03-20T13:58:17.989Z,108.93
2019-03-20T14:00:46.836Z,100.50
2019-03-20T14:03:15.703Z,101.67
2019-03-20T14:05:44.607Z,103.47
2019-03-20T14:08:13.479Z,100.83
2019-03-20T14:10:50.365Z,92.10
2019-03-20T14:13:13.019Z,103.20
2019-03-20T14:15:41.877Z,112.40
2019-03-20T14:18:10.733Z,106.57
2019-03-20T14:20:39.647Z,99.30
2019-03-20T14:23:08.467Z,97.27
2019-03-20T14:25:37.647Z,93.40
2019-03-20T14:28:06.539Z,93.13
2019-03-20T14:30:35.387Z,113.47
2019-03-20T14:33:04.256Z,118.00
2019-03-20T14:35:33.154Z,112.07
2019-03-20T14:38:02.928Z,101.20
2019-03-20T14:40:36.074Z,107.23
2019-03-20T14:43:03.292Z,120.80
2019-03-20T14:45:32.213Z,117.00
2019-03-20T14:48:01.073Z,97.93
2019-03-20T14:50:36.252Z,113.00
2019-03-20T14:53:04.471Z,105.97
2019-03-20T14:55:33.355Z,125.77
2019-03-20T14:58:02.258Z,125.23
2019-03-20T15:00:31.663Z,157.77
2019-03-20T15:03:00.664Z,135.00
2019-03-20T15:05:29.584Z,136.97
2019-03-20T15:07:58.431Z,152.90
2019-03-20T15:10:28.279Z,157.17
2019-03-20T15:12:58.435Z,136.40
2019-03-20T15:15:41.665Z,165.33
2019-03-20T15:18:10.586Z,184.50
2019-03-20T15:20:39.439Z,152.50
2019-03-20T15:23:08.279Z,166.03
2019-03-20T15:25:37.184Z,165.90
2019-03-20T15:28:06.038Z,157.73
2019-03-20T15:30:34.889Z,130.40
2019-03-20T15:33:03.922Z,127.30
2019-03-20T15:35:32.762Z,143.33
2019-03-20T15:38:01.603Z,127.60
2019-03-20T15:40:31.317Z,141.27
2019-03-20T15:43:00.151Z,144.73
2019-03-20T15:45:29.026Z,128.87
2019-03-20T15:47:57.944Z,127.17
2019-03-20T15:50:29.791Z,129.77
2019-03-20T15:52:58.657Z,99.57
2019-03-20T15:55:32.397Z,107.60
2019-03-20T15:58:01.334Z,110.40
2019-03-20T16:00:30.293Z,105.57
2019-03-20T16:03:04.724Z,105.27
2019-03-20T16:05:33.658Z,103.27
2019-03-20T16:08:02.529Z,114.73
2019-03-20T16:10:31.424Z,118.17
2019-03-20T16:13:00.284Z,122.97
2019-03-20T16:15:29.140Z,120.33
2019-03-20T16:17:58.086Z,118.77
2019-03-20T16:20:26.940Z,111.43
2019-03-20T16:22:55.792Z,108.60
2019-03-20T16:25:25.079Z,109.03
2019-03-20T16:27:53.927Z,114.80
2019-03-20T16:30:34.939Z,126.23
2019-03-20T16:33:03.756Z,118.37
2019-03-20T16:35:32.614Z,111.67
2019-03-20T16:40:37.845Z,116.70
2019-03-20T16:43:08.742Z,136.73
2019-03-20T16:45:38.091Z,133.47
2019-03-20T16:48:15.046Z,139.33
2019-03-20T16:50:43.948Z,140.70
2019-03-20T16:53:12.805Z,163.83
2019-03-20T16:55:41.639Z,155.37
2019-03-20T16:58:10.651Z,149.37
2019-03-20T17:00:39.489Z,153.73
2019-03-20T17:03:08.357Z,167.37
2019-03-20T17:05:37.554Z,191.00
2019-03-20T17:08:06.423Z,230.10
2019-03-20T17:10:42.687Z,221.50
2019-03-20T17:13:11.668Z,229.57
2019-03-20T17:15:41.917Z,162.83
2019-03-20T17:18:10.952Z,164.43
2019-03-20T17:20:39.821Z,164.87
2019-03-20T17:23:08.823Z,174.90
2019-03-20T17:25:37.862Z,135.97
2019-03-20T17:28:07.341Z,113.57
2019-03-20T17:30:40.596Z,101.90
2019-03-20T17:33:09.585Z,114.00
2019-03-20T17:35:38.452Z,109.30
2019-03-20T17:38:07.314Z,104.30
2019-03-20T17:40:36.336Z,94.10
2019-03-20T17:43:05.858Z,91.40
2019-03-20T17:45:35.887Z,125.50
2019-03-20T17:48:05.485Z,108.43
2019-03-20T17:50:35.254Z,123.70
2019-03-20T17:53:05.495Z,120.97
2019-03-20T17:55:34.510Z,130.60
2019-03-20T17:58:03.777Z,141.27
2019-03-20T18:00:34.799Z,121.03
2019-03-20T18:03:05.793Z,118.07
2019-03-20T18:05:34.672Z,120.90
2019-03-20T18:08:10.939Z,160.80
2019-03-20T18:10:39.782Z,157.93
2019-03-20T18:13:08.842Z,181.30
2019-03-20T18:15:37.738Z,158.83
2019-03-20T18:18:07.774Z,152.70
2019-03-20T18:20:37.310Z,177.13
2019-03-20T18:23:07.192Z,164.07
2019-03-20T18:25:36.072Z,180.07
2019-03-20T18:28:04.935Z,169.80
2019-03-20T18:30:39.064Z,150.60
2019-03-20T18:33:08.017Z,159.57
2019-03-20T18:35:36.863Z,164.73
2019-03-20T18:38:06.574Z,195.87
2019-03-20T18:40:35.443Z,178.03
2019-03-20T18:43:04.606Z,174.40
2019-03-20T18:45:33.540Z,171.50
2019-03-20T18:48:03.236Z,169.20
2019-03-20T18:50:32.089Z,196.93
2019-03-20T18:53:00.974Z,247.10
2019-03-20T18:55:29.840Z,223.87
2019-03-20T18:57:58.688Z,274.03
2019-03-20T19:00:34.261Z,263.70
2019-03-20T19:03:18.053Z,200.27
2019-03-20T19:05:55.758Z,226.03
2019-03-20T19:08:24.753Z,320.40
2019-03-20T19:10:53.663Z,334.17
2019-03-20T19:13:24.388Z,326.97
2019-03-20T19:15:53.115Z,320.23
2019-03-20T19:18:21.974Z,355.17
2019-03-20T19:20:50.976Z,331.23
2019-03-20T19:23:19.831Z,299.37
2019-03-20T19:25:48.699Z,348.27
2019-03-20T19:28:17.596Z,320.80
2019-03-20T19:30:46.454Z,343.80
2019-03-20T19:33:15.319Z,279.47
2019-03-20T19:35:44.214Z,208.80
2019-03-20T19:38:13.037Z,209.27
2019-03-20T19:40:41.915Z,209.87
2019-03-20T19:43:10.854Z,224.00
2019-03-20T19:45:39.721Z,222.10
2019-03-20T19:48:08.590Z,246.07
2019-03-20T19:50:38.331Z,213.97
2019-03-20T19:53:07.200Z,215.63
2019-03-20T19:55:36.058Z,250.97
2019-03-20T19:58:05.153Z,248.03
2019-03-20T20:00:34.120Z,236.73
2019-03-20T20:03:02.984Z,228.50
2019-03-20T20:05:31.885Z,226.07
2019-03-20T20:08:00.739Z,212.77
2019-03-20T20:10:29.598Z,254.53
2019-03-20T20:12:58.501Z,260.97
2019-03-20T20:15:28.578Z,251.80
2019-03-20T20:17:57.450Z,218.23
2019-03-20T20:20:34.816Z,298.53
2019-03-20T20:23:04.548Z,264.93
2019-03-20T20:25:33.623Z,284.53
2019-03-20T20:28:02.543Z,309.73
2019-03-20T20:30:31.392Z,344.00
2019-03-20T20:33:00.276Z,354.73
2019-03-20T20:35:29.186Z,349.37
2019-03-20T20:37:58.059Z,321.03
2019-03-20T20:40:31.522Z,310.60
2019-03-20T20:43:00.434Z,327.97
2019-03-20T20:45:29.310Z,285.43
2019-03-20T20:47:58.183Z,311.97
2019-03-20T20:50:27.047Z,298.30
2019-03-20T20:52:55.947Z,308.73
2019-03-20T20:55:26.971Z,333.77
2019-03-20T20:57:55.883Z,311.47
2019-03-20T21:00:25.810Z,278.13
2019-03-20T21:02:54.724Z,273.77
2019-03-20T21:05:23.668Z,271.77
2019-03-20T21:07:52.529Z,352.03
2019-03-20T21:10:23.253Z,382.10
2019-03-20T21:12:56.805Z,396.43
2019-03-20T21:15:34.688Z,343.70
2019-03-20T21:18:15.438Z,337.30
2019-03-20T21:20:45.011Z,325.13
2019-03-20T21:23:38.412Z,336.57
2019-03-20T21:26:12.471Z,313.57
2019-03-20T21:29:17.706Z,347.60
2019-03-20T21:31:55.596Z,267.13
2019-03-20T21:35:00.825Z,309.43
2019-03-20T21:37:38.672Z,304.03
2019-03-20T21:40:10.086Z,287.77
2019-03-20T21:43:15.059Z,273.07
2019-03-20T21:45:55.031Z,289.23
2019-03-20T21:48:23.231Z,269.57
2019-03-20T21:51:15.948Z,261.30
2019-03-20T21:53:50.992Z,317.80
2019-03-20T21:56:48.642Z,270.07
2019-03-20T21:59:35.054Z,267.77
2019-03-20T22:02:26.610Z,303.20
2019-03-20T22:04:55.470Z,328.40
2019-03-20T22:07:24.326Z,301.70
2019-03-20T22:09:56.165Z,303.67
2019-03-20T22:12:45.893Z,307.23
2019-03-20T22:15:26.949Z,276.97
2019-03-20T22:18:30.554Z,291.90
2019-03-20T22:21:08.344Z,272.57
2019-03-20T22:23:55.223Z,313.93
2019-03-20T22:26:59.030Z,310.23
2019-03-20T22:29:28.374Z,309.27
2019-03-20T22:32:30.567Z,340.70
2019-03-20T22:35:14.346Z,282.93
2019-03-20T22:37:43.251Z,310.03
2019-03-20T22:40:17.736Z,335.83
2019-03-20T22:42:58.136Z,348.73
2019-03-20T22:46:05.081Z,370.27
2019-03-20T22:49:08.804Z,378.40
2019-03-20T22:51:40.606Z,377.40
2019-03-20T22:54:29.143Z,313.10
2019-03-20T22:57:17.571Z,299.93
2019-03-20T22:59:46.505Z,304.23
2019-03-20T23:02:24.288Z,313.80
2019-03-20T23:04:56.531Z,324.40
2019-03-20T23:07:25.375Z,327.07
2019-03-20T23:09:54.210Z,346.57
2019-03-20T23:12:23.159Z,349.43
2019-03-20T23:14:52.023Z,380.93
2019-03-20T23:17:21.285Z,357.53
2019-03-20T23:19:50.616Z,361.03
2019-03-20T23:22:19.479Z,376.77
2019-03-20T23:24:48.329Z,354.37
2019-03-20T23:27:20.207Z,354.73
2019-03-20T23:29:49.064Z,345.73
2019-03-20T23:32:17.958Z,328.93
2019-03-20T23:34:46.878Z,323.10
2019-03-20T23:37:15.770Z,316.33
2019-03-20T23:39:44.725Z,318.73
2019-03-20T23:42:13.681Z,303.97
2019-03-20T23:44:42.552Z,294.87
2019-03-20T23:47:11.388Z,324.40
2019-03-20T23:49:40.335Z,294.57
2019-03-20T23:52:09.236Z,321.40
2019-03-20T23:54:45.342Z,314.30
2019-03-20T23:57:14.555Z,299.90
2019-03-20T23:59:43.400Z,283.87
